Dies, Texas
Current Conditions -  °F | °C
As of 11:15 AM on Thursday 27 Nov 2014 (Local Time) from KJAS Reporting Station
Clear Clear  
Wind Chill: 14°   Ceiling: Unl
Heat Index: 14°   Visibility: 10mi
Dew Point: -2°   Wind: 8mph
Humidity: 33%   Direction: 20°NNE
Pressure: 30.51"   Gusts: NA
Location:  30.7643°N, 94.4448°W
Report Text: KJAS 271715Z AUTO 02007KT 10SM CLR 14/M02 A3051 RMK AO2 T01401021
Loading
Personal Weather Stations






























Interactive Weather Map New forecast layout! Learn more

10-Day Weather Forecast

Advertisements
Track Severe Weather on mobile